Holly Park, California
Current Conditions -  °F | °C
As of 2:53 PM on Tuesday 25 Nov 2014 (Local Time) from KHHR Reporting Station
Clear Clear  
Wind Chill: 77°   Ceiling: Unl
Heat Index: 77°   Visibility: 10mi
Dew Point: 21°   Wind: 9mph
Humidity: 12%   Direction: 240°WSW
Pressure: 30.27"   Gusts: NA
Location:  33.9143°N, 118.349°W
Report Text: KHHR 252253Z 24008KT 10SM CLR 25/M06 A3027 RMK AO2 SLP247 T02501061
Loading
Personal Weather Stations






























Interactive Weather Map New forecast layout! Learn more

10-Day Weather Forecast

Advertisements
Track Severe Weather on mobile